Time;durP1;ratioP1;P1;durP2;ratioP2;P2;SDS_P1;SDS_P2;PMS_P1;PMS_P2;Temp;Humidity;BMP_temperature;BMP_pressure;BME280_temperature;BME280_humidity;BME280_pressure;Samples;Min_cycle;Max_cycle;Signal;HPM_P1;HPM_P2
2022/12/26 00:01:53;;;;;;;9.48;6.90;;;;;;;3.93;68.01;101490.66;1665882;84;21087;-69
2022/12/26 00:04:20;;;;;;;8.38;6.17;;;;;;;3.92;68.00;101493.50;1694275;83;21100;-69
2022/12/26 00:06:47;;;;;;;9.25;6.67;;;;;;;3.89;67.86;101484.12;1675248;83;21085;-68
2022/12/26 00:09:16;;;;;;;8.28;6.20;;;;;;;3.82;67.54;101484.57;1677539;84;21148;-68
2022/12/26 00:11:42;;;;;;;9.63;6.25;;;;;;;3.72;67.43;101476.14;1677415;84;21290;-69
2022/12/26 00:14:14;;;;;;;8.65;6.17;;;;;;;3.66;67.48;101476.39;1687465;83;21069;-68
2022/12/26 00:16:42;;;;;;;8.55;6.58;;;;;;;3.63;67.53;101478.59;1687829;83;21123;-68
2022/12/26 00:19:09;;;;;;;8.95;6.60;;;;;;;3.63;67.65;101479.91;1679791;84;21021;-69
2022/12/26 00:21:36;;;;;;;10.32;7.62;;;;;;;3.62;67.71;101476.45;1687503;83;21212;-68
2022/12/26 00:24:02;;;;;;;10.03;7.70;;;;;;;3.64;67.80;101477.06;1681452;84;21779;-69
2022/12/26 00:26:31;;;;;;;10.28;8.40;;;;;;;3.68;67.69;101477.50;1689171;84;21080;-69
2022/12/26 00:28:58;;;;;;;10.80;8.55;;;;;;;3.65;67.56;101485.33;1676089;84;21683;-68
2022/12/26 00:31:28;;;;;;;11.43;8.88;;;;;;;3.65;67.50;101477.87;1671289;84;21560;-68
2022/12/26 00:33:55;;;;;;;11.80;8.83;;;;;;;3.66;67.40;101478.22;1691171;83;21124;-69
2022/12/26 00:36:26;;;;;;;10.70;8.10;;;;;;;3.68;67.38;101485.43;1669598;84;22254;-68
2022/12/26 00:38:53;;;;;;;10.43;7.90;;;;;;;3.69;67.28;101479.16;1677848;84;21159;-69
2022/12/26 00:41:20;;;;;;;10.10;7.30;;;;;;;3.65;67.12;101482.69;1685799;84;21676;-69
2022/12/26 00:43:47;;;;;;;10.72;7.67;;;;;;;3.63;67.00;101486.52;1678461;82;21207;-68
2022/12/26 00:46:14;;;;;;;9.83;7.50;;;;;;;3.57;66.81;101479.34;1668359;84;21062;-69
2022/12/26 00:48:41;;;;;;;9.08;6.80;;;;;;;3.52;66.82;101482.52;1683960;84;21244;-68
2022/12/26 00:51:08;;;;;;;10.25;7.78;;;;;;;3.48;66.85;101483.91;1699137;82;21099;-68
2022/12/26 00:53:35;;;;;;;10.10;7.47;;;;;;;3.43;66.85;101480.52;1662960;85;21142;-68
2022/12/26 00:56:01;;;;;;;9.90;6.90;;;;;;;3.45;66.92;101481.13;1692789;83;21068;-68
2022/12/26 00:58:29;;;;;;;8.73;6.40;;;;;;;3.44;66.95;101482.66;1686558;83;21049;-68
2022/12/26 01:01:05;;;;;;;8.55;6.92;;;;;;;3.42;66.96;101485.50;1691442;83;21315;-68
2022/12/26 01:03:32;;;;;;;10.10;7.00;;;;;;;3.45;67.01;101490.38;1691015;83;21103;-68
2022/12/26 01:06:01;;;;;;;9.55;7.35;;;;;;;3.46;67.07;101488.08;1692773;83;21045;-68
2022/12/26 01:08:28;;;;;;;8.38;6.47;;;;;;;3.47;67.04;101488.88;1680392;83;21072;-68
2022/12/26 01:10:55;;;;;;;7.62;5.80;;;;;;;3.47;67.00;101483.09;1698493;83;21064;-68
2022/12/26 01:13:22;;;;;;;8.78;6.75;;;;;;;3.47;67.02;101490.20;1698931;83;21237;-68
2022/12/26 01:15:50;;;;;;;8.18;6.05;;;;;;;3.46;67.04;101485.43;1681858;83;21052;-68
2022/12/26 01:18:17;;;;;;;7.45;5.65;;;;;;;3.50;67.08;101484.55;1693652;83;21114;-68
2022/12/26 01:20:44;;;;;;;8.43;6.00;;;;;;;3.53;67.03;101487.63;1666853;84;21067;-68
2022/12/26 01:23:11;;;;;;;8.20;5.80;;;;;;;3.55;67.03;101485.30;1668639;84;21166;-68
2022/12/26 01:25:39;;;;;;;8.28;6.08;;;;;;;3.58;67.01;101482.28;1674859;83;21405;-67
2022/12/26 01:28:05;;;;;;;7.47;5.40;;;;;;;3.59;66.83;101491.87;1644340;86;21049;-70
2022/12/26 01:30:32;;;;;;;7.20;5.15;;;;;;;3.56;66.65;101489.59;1691838;83;21595;-68
2022/12/26 01:33:00;;;;;;;6.28;4.50;;;;;;;3.53;66.63;101496.88;1687558;83;21524;-68
2022/12/26 01:35:27;;;;;;;6.47;4.67;;;;;;;3.50;66.44;101493.29;1690525;83;21072;-68
2022/12/26 01:37:55;;;;;;;6.33;4.80;;;;;;;3.49;66.41;101494.81;1689377;83;21158;-68
2022/12/26 01:40:22;;;;;;;7.22;5.22;;;;;;;3.51;66.39;101493.59;1698490;83;21049;-68
2022/12/26 01:42:48;;;;;;;6.83;5.05;;;;;;;3.56;66.33;101499.66;1681538;83;21040;-69
2022/12/26 01:45:30;;;;;;;6.22;4.62;;;;;;;3.55;66.15;101492.72;1690133;83;21547;-68
2022/12/26 01:48:20;;;;;;;8.50;5.30;;;;;;;3.49;65.94;101498.77;1697223;83;21064;-69
2022/12/26 01:51:01;;;;;;;7.10;5.25;;;;;;;3.41;65.89;101499.69;1682906;83;21834;-67
2022/12/26 01:53:45;;;;;;;6.67;4.70;;;;;;;3.36;65.90;101496.80;1700903;83;21021;-67
2022/12/26 01:56:15;;;;;;;8.23;5.30;;;;;;;3.34;65.97;101493.52;1700578;83;21089;-69
2022/12/26 01:58:47;;;;;;;6.35;4.83;;;;;;;3.32;66.02;101490.73;1690811;83;21084;-69
2022/12/26 02:01:14;;;;;;;4.62;3.70;;;;;;;3.31;66.10;101501.80;1700681;83;21104;-69
2022/12/26 02:06:10;;;;;;;5.80;4.30;;;;;;;3.29;66.21;101495.41;1681912;83;21048;-69
2022/12/26 02:08:38;;;;;;;6.05;4.70;;;;;;;3.31;66.22;101497.84;1699848;83;21056;-69
2022/12/26 02:11:13;;;;;;;5.53;4.35;;;;;;;3.32;66.18;101492.88;1670983;83;21017;-68
2022/12/26 02:13:40;;;;;;;5.90;4.30;;;;;;;3.33;66.20;101490.56;1689081;83;21104;-68
2022/12/26 02:16:09;;;;;;;7.35;4.90;;;;;;;3.34;66.20;101482.95;1707884;83;21131;-68
2022/12/26 02:18:36;;;;;;;5.70;4.35;;;;;;;3.37;66.23;101481.27;1690824;83;21037;-68
2022/12/26 02:21:29;;;;;;;7.35;5.55;;;;;;;3.38;66.26;101494.77;1690019;83;21100;-68
2022/12/26 02:24:13;;;;;;;8.23;5.33;;;;;;;3.44;66.26;101489.26;1694975;83;21045;-68
2022/12/26 02:27:03;;;;;;;6.30;4.80;;;;;;;3.46;66.19;101493.36;1683067;83;21689;-68
2022/12/26 02:30:11;;;;;;;7.08;5.33;;;;;;;3.49;66.11;101493.49;1694166;84;21169;-68
2022/12/26 02:32:59;;;;;;;7.97;5.50;;;;;;;3.49;66.06;101491.66;1644693;86;21129;-68
2022/12/26 02:35:43;;;;;;;7.85;5.25;;;;;;;3.55;66.07;101495.86;1685689;84;21075;-67
2022/12/26 02:38:56;;;;;;;6.95;5.25;;;;;;;3.57;65.95;101492.55;1663909;84;21084;-67
2022/12/26 02:41:51;;;;;;;7.47;5.47;;;;;;;3.57;65.86;101492.55;1664576;86;21064;-68
2022/12/26 02:47:24;;;;;;;6.60;4.95;;;;;;;3.50;65.68;101488.00;1667811;84;20982;-68
2022/12/26 03:13:26;;;;;;;6.67;4.67;;;;;;;3.69;65.75;101479.16;1667116;84;21151;-69
2022/12/26 03:18:52;;;;;;;6.95;5.12;;;;;;;3.69;65.63;101473.87;1665700;86;21084;-69
2022/12/26 03:21:23;;;;;;;7.15;4.70;;;;;;;3.65;65.64;101477.41;1665702;84;20997;-68
2022/12/26 03:23:50;;;;;;;8.93;6.00;;;;;;;3.57;65.59;101471.41;1667056;84;21072;-68
2022/12/26 03:26:42;;;;;;;7.08;5.30;;;;;;;3.49;65.73;101469.72;1665130;86;22213;-68
2022/12/26 03:32:05;;;;;;;9.33;6.33;;;;;;;3.64;65.45;101469.65;1665753;85;21021;-68
2022/12/26 03:34:33;;;;;;;8.98;6.30;;;;;;;3.62;65.49;101471.65;1667029;84;21068;-68
2022/12/26 03:37:31;;;;;;;9.35;6.58;;;;;;;3.60;65.59;101472.36;1667493;84;21112;-68
2022/12/26 04:44:31;;;;;;;11.15;7.60;;;;;;;2.77;68.51;101514.84;1693101;83;21084;-70
2022/12/26 04:46:58;;;;;;;12.47;7.87;;;;;;;2.80;68.42;101514.48;1665290;86;21076;-69
2022/12/26 04:52:13;;;;;;;13.00;8.38;;;;;;;2.76;68.36;101516.33;1620936;85;21935;-68
2022/12/26 04:54:41;;;;;;;11.83;8.48;;;;;;;2.71;68.34;101519.52;1667283;84;21029;-68
2022/12/26 04:57:09;;;;;;;11.85;8.10;;;;;;;2.68;68.34;101520.38;1665614;86;21058;-69
2022/12/26 04:59:36;;;;;;;11.30;7.60;;;;;;;2.68;68.33;101529.61;1665405;84;21013;-69
2022/12/26 05:10:24;;;;;;;10.98;7.08;;;;;;;2.70;68.26;101535.03;1603029;89;21604;-69
2022/12/26 05:12:52;;;;;;;11.45;8.33;;;;;;;2.71;68.31;101542.45;1698123;82;21541;-69
2022/12/26 05:15:19;;;;;;;10.38;6.75;;;;;;;2.76;68.27;101546.66;1716424;82;21047;-70
2022/12/26 05:29:05;;;;;;;9.58;7.35;;;;;;;2.96;68.02;101563.62;1693818;84;21037;-69
2022/12/26 05:31:32;;;;;;;12.05;7.60;;;;;;;2.92;67.93;101566.28;1661887;84;21079;-69
2022/12/26 05:34:05;;;;;;;12.73;7.58;;;;;;;2.88;67.95;101576.89;1686103;83;21073;-69
2022/12/26 05:36:41;;;;;;;10.53;7.47;;;;;;;2.90;67.95;101576.72;1685198;83;21061;-69
2022/12/26 05:39:08;;;;;;;10.68;7.80;;;;;;;2.95;67.95;101575.66;1674276;83;21104;-69
2022/12/26 05:41:35;;;;;;;10.60;7.55;;;;;;;2.94;67.84;101569.57;1679090;84;21021;-69
2022/12/26 05:44:03;;;;;;;10.95;7.03;;;;;;;2.97;67.75;101580.27;1695389;83;21372;-69
2022/12/26 05:46:29;;;;;;;10.10;7.00;;;;;;;2.92;67.62;101576.84;1692933;84;21076;-69
2022/12/26 05:48:56;;;;;;;9.08;6.80;;;;;;;2.91;67.59;101578.35;1680292;84;20989;-69
2022/12/26 05:51:23;;;;;;;10.40;7.30;;;;;;;2.88;67.46;101576.89;1673610;84;21124;-69
2022/12/26 05:53:51;;;;;;;9.45;6.80;;;;;;;2.88;67.40;101576.08;1689908;84;21087;-69
2022/12/26 05:56:18;;;;;;;10.93;7.50;;;;;;;2.89;67.38;101567.96;1691815;83;21915;-70
2022/12/26 05:58:45;;;;;;;9.90;7.30;;;;;;;2.81;67.37;101567.55;1687647;84;21099;-69
2022/12/26 06:01:18;;;;;;;10.63;7.15;;;;;;;2.77;67.47;101572.87;1674210;84;21036;-70
2022/12/26 06:03:51;;;;;;;9.88;7.35;;;;;;;2.79;67.54;101574.00;1687283;84;21057;-70
2022/12/26 06:06:19;;;;;;;10.53;7.62;;;;;;;2.80;67.59;101564.61;1693682;84;21084;-70
2022/12/26 06:08:53;;;;;;;9.18;6.80;;;;;;;2.80;67.60;101569.07;1689945;83;21138;-69
2022/12/26 06:11:19;;;;;;;9.98;6.95;;;;;;;2.79;67.56;101567.41;1692068;83;20966;-70
2022/12/26 06:13:46;;;;;;;9.70;6.90;;;;;;;2.75;67.59;101563.00;1691593;84;20990;-70
2022/12/26 06:16:15;;;;;;;9.88;7.00;;;;;;;2.71;67.62;101565.69;1691205;83;21105;-70
2022/12/26 06:18:42;;;;;;;9.15;6.30;;;;;;;2.68;67.71;101570.50;1692180;83;21073;-69
2022/12/26 06:21:12;;;;;;;8.13;6.28;;;;;;;2.62;67.81;101561.98;1692120;84;21686;-69
2022/12/26 06:23:39;;;;;;;9.50;6.95;;;;;;;2.56;67.92;101563.52;1691043;84;21128;-69
2022/12/26 06:26:07;;;;;;;9.35;6.60;;;;;;;2.52;68.06;101560.41;1694872;83;21096;-69
2022/12/26 06:28:35;;;;;;;8.65;6.50;;;;;;;2.54;68.13;101558.94;1693333;83;21130;-69
2022/12/26 06:31:09;;;;;;;10.28;6.60;;;;;;;2.55;68.10;101561.38;1687938;83;21033;-69
2022/12/26 06:33:37;;;;;;;8.70;6.42;;;;;;;2.57;68.08;101560.71;1691783;83;21734;-71
2022/12/26 06:36:10;;;;;;;8.78;6.60;;;;;;;2.57;68.08;101559.39;1674183;84;20977;-69
2022/12/26 06:38:37;;;;;;;8.40;6.03;;;;;;;2.54;68.11;101551.84;1691950;83;21683;-69
2022/12/26 06:41:05;;;;;;;7.80;5.55;;;;;;;2.54;68.16;101556.30;1693017;83;20997;-69
2022/12/26 06:43:32;;;;;;;7.95;5.67;;;;;;;2.52;68.18;101556.46;1690521;83;21116;-69
2022/12/26 06:45:59;;;;;;;9.25;5.65;;;;;;;2.52;68.25;101559.09;1695620;82;21279;-69
2022/12/26 06:48:26;;;;;;;9.83;5.70;;;;;;;2.53;68.24;101554.16;1713693;82;21072;-68
2022/12/26 06:50:54;;;;;;;7.10;5.22;;;;;;;2.53;68.21;101560.76;1718005;82;21049;-70
2022/12/26 06:53:22;;;;;;;7.97;5.28;;;;;;;2.54;68.25;101552.34;1712154;82;20958;-69
2022/12/26 06:55:49;;;;;;;7.97;5.75;;;;;;;2.54;68.27;101554.48;1706072;82;21516;-70
2022/12/26 06:58:16;;;;;;;7.90;6.15;;;;;;;2.55;68.24;101553.97;1718594;82;21563;-70
2022/12/26 07:00:44;;;;;;;7.75;6.15;;;;;;;2.58;68.21;101553.11;1710493;82;21046;-69
2022/12/26 07:03:11;;;;;;;7.40;5.50;;;;;;;2.65;68.22;101553.72;1714645;82;21089;-69
2022/12/26 07:05:37;;;;;;;8.90;5.75;;;;;;;2.68;68.06;101552.03;1693916;84;21476;-69
2022/12/26 07:08:06;;;;;;;7.40;5.22;;;;;;;2.69;67.99;101553.66;1697960;83;21104;-69
2022/12/26 07:10:36;;;;;;;7.92;5.80;;;;;;;2.70;67.93;101553.98;1666679;84;21086;-69
2022/12/26 07:13:03;;;;;;;7.80;5.97;;;;;;;2.69;67.88;101550.52;1451991;83;10000576;-70
2022/12/26 07:15:30;;;;;;;9.65;6.25;;;;;;;2.70;67.83;101537.67;1696257;82;21071;-70
2022/12/26 07:17:58;;;;;;;7.90;6.30;;;;;;;2.74;67.75;101538.13;1685652;82;21182;-70
2022/12/26 07:20:25;;;;;;;9.45;5.78;;;;;;;2.77;67.71;101541.22;1648247;86;21123;-71
2022/12/26 07:22:53;;;;;;;7.55;5.25;;;;;;;2.80;67.57;101537.41;1665276;84;21102;-69
2022/12/26 07:25:20;;;;;;;8.13;5.37;;;;;;;2.78;67.57;101532.30;1701483;82;21107;-70
2022/12/26 07:27:47;;;;;;;8.68;5.83;;;;;;;2.77;67.55;101531.17;1692299;83;21096;-70
2022/12/26 07:30:14;;;;;;;11.03;6.67;;;;;;;2.79;67.55;101531.79;1677244;83;21866;-70
2022/12/26 07:32:41;;;;;;;8.90;6.50;;;;;;;2.81;67.51;101529.80;1686346;83;21091;-71
2022/12/26 07:35:08;;;;;;;9.75;6.20;;;;;;;2.81;67.56;101531.13;1689217;83;21090;-70
2022/12/26 07:37:35;;;;;;;8.85;6.15;;;;;;;2.85;67.62;101531.58;1684336;83;21159;-71
2022/12/26 07:40:02;;;;;;;7.75;6.03;;;;;;;2.92;67.71;101532.48;1690003;84;21135;-71
2022/12/26 07:42:29;;;;;;;7.90;6.20;;;;;;;2.99;67.65;101536.02;1671973;84;21271;-69
2022/12/26 07:44:59;;;;;;;8.98;6.45;;;;;;;3.03;67.44;101533.36;1688574;83;21120;-68
2022/12/26 07:47:26;;;;;;;8.10;6.35;;;;;;;3.12;67.48;101526.14;1671676;84;21080;-70
2022/12/26 07:49:53;;;;;;;9.43;6.90;;;;;;;3.26;67.50;101533.25;1685061;83;21566;-69
2022/12/26 07:52:20;;;;;;;9.28;6.35;;;;;;;3.35;67.32;101531.30;1678971;84;21084;-69
2022/12/26 07:54:47;;;;;;;9.83;6.62;;;;;;;3.47;67.22;101533.78;1670648;83;21171;-69
2022/12/26 07:57:13;;;;;;;8.43;6.37;;;;;;;3.53;66.95;101532.53;1666607;84;21116;-69
2022/12/26 07:59:41;;;;;;;9.50;7.08;;;;;;;3.60;66.82;101531.29;1678118;83;21046;-69
2022/12/26 08:02:10;;;;;;;9.63;7.15;;;;;;;3.63;66.60;101522.99;1684447;84;21081;-70
2022/12/26 08:04:37;;;;;;;10.10;7.12;;;;;;;3.63;66.25;101536.20;1665295;84;21059;-70
2022/12/26 08:07:04;;;;;;;10.32;7.17;;;;;;;3.62;66.22;101535.05;1681815;83;21173;-70
2022/12/26 08:09:31;;;;;;;9.65;6.78;;;;;;;3.66;66.11;101533.70;1689309;84;21073;-70
2022/12/26 08:11:58;;;;;;;8.68;6.12;;;;;;;3.74;65.94;101529.59;1670234;84;22583;-69
2022/12/26 08:14:25;;;;;;;9.73;7.45;;;;;;;3.69;65.58;101525.40;1678354;84;21029;-69
2022/12/26 08:16:51;;;;;;;10.00;7.30;;;;;;;3.63;65.43;101529.59;1691946;83;21064;-69
2022/12/26 08:19:18;;;;;;;10.32;7.33;;;;;;;3.60;65.52;101531.29;1682852;83;21969;-69
2022/12/26 08:21:45;;;;;;;9.58;7.17;;;;;;;3.66;65.58;101529.23;1698858;82;21132;-69
2022/12/26 08:24:13;;;;;;;9.78;7.53;;;;;;;3.73;65.48;101526.65;1695534;83;21133;-69
2022/12/26 08:26:40;;;;;;;12.23;7.87;;;;;;;3.84;65.41;101532.75;1705957;82;21065;-69
2022/12/26 08:29:07;;;;;;;10.13;7.05;;;;;;;3.92;65.22;101527.86;1706724;82;21050;-69
2022/12/26 08:31:34;;;;;;;10.20;7.15;;;;;;;3.91;64.97;101526.20;1672398;82;21166;-69
2022/12/26 08:34:01;;;;;;;12.18;8.43;;;;;;;3.85;64.86;101529.13;1701159;82;21077;-69
2022/12/26 08:36:29;;;;;;;9.83;7.12;;;;;;;3.80;64.78;101528.85;1696832;83;21116;-70
2022/12/26 08:38:57;;;;;;;10.78;8.10;;;;;;;3.75;64.66;101533.39;1701488;83;21076;-70
2022/12/26 08:41:24;;;;;;;11.85;7.55;;;;;;;3.64;64.68;101532.55;1695453;83;21112;-70
2022/12/26 08:43:51;;;;;;;10.35;7.30;;;;;;;3.59;64.79;101538.09;1698722;82;21532;-69
2022/12/26 08:46:19;;;;;;;10.58;7.58;;;;;;;3.53;64.86;101540.46;1695585;83;21060;-70
2022/12/26 08:48:47;;;;;;;12.60;8.63;;;;;;;3.56;64.97;101541.11;1671649;83;21090;-70
2022/12/26 08:51:20;;;;;;;12.13;7.78;;;;;;;3.56;65.10;101530.54;1692802;83;21042;-69
2022/12/26 08:53:48;;;;;;;13.05;9.03;;;;;;;3.66;65.24;101523.94;1704327;83;21615;-70
2022/12/26 08:56:19;;;;;;;12.60;8.30;;;;;;;3.73;65.05;101521.36;1697299;83;22589;-70
2022/12/26 08:58:46;;;;;;;12.33;8.28;;;;;;;3.77;64.97;101521.30;1703094;82;21200;-70
2022/12/26 09:01:25;;;;;;;14.00;8.73;;;;;;;3.77;64.99;101522.62;1675262;83;21796;-71
2022/12/26 09:03:54;;;;;;;12.33;9.00;;;;;;;3.75;64.92;101520.18;1672285;84;21004;-71
2022/12/26 09:06:20;;;;;;;13.00;8.75;;;;;;;3.75;65.04;101518.02;1672190;84;22001;-71
2022/12/26 09:08:47;;;;;;;13.45;8.80;;;;;;;3.84;65.13;101516.08;1661749;84;21504;-69
2022/12/26 09:11:17;;;;;;;10.78;7.87;;;;;;;3.97;64.97;101522.81;1678496;84;21013;-71
2022/12/26 09:13:44;;;;;;;12.15;7.87;;;;;;;4.08;64.79;101518.83;1674285;84;21105;-70
2022/12/26 09:16:16;;;;;;;12.33;8.08;;;;;;;4.15;64.55;101513.12;1691295;84;21056;-70
2022/12/26 09:18:44;;;;;;;11.97;7.95;;;;;;;4.09;64.28;101508.08;1671906;84;21096;-70
2022/12/26 09:21:12;;;;;;;13.32;9.33;;;;;;;3.95;64.15;101512.44;1686231;83;21552;-69
2022/12/26 09:23:39;;;;;;;10.88;7.65;;;;;;;3.92;64.36;101510.68;1680937;84;21104;-69
2022/12/26 09:26:10;;;;;;;9.60;6.75;;;;;;;3.93;64.24;101509.16;1686421;83;21567;-70
2022/12/26 09:28:37;;;;;;;10.23;7.58;;;;;;;3.88;64.24;101505.44;1672258;84;21151;-69
2022/12/26 09:31:13;;;;;;;12.30;8.85;;;;;;;3.77;64.39;101493.55;1704433;82;21101;-69
2022/12/26 09:33:40;;;;;;;13.38;8.50;;;;;;;3.79;64.59;101495.52;1685002;83;21595;-69
2022/12/26 09:36:13;;;;;;;11.45;8.48;;;;;;;3.86;64.43;101489.78;1666159;84;21116;-70
2022/12/26 09:38:39;;;;;;;12.73;8.70;;;;;;;3.96;64.50;101486.31;1699531;82;21091;-70
2022/12/26 09:41:26;;;;;;;12.63;8.28;;;;;;;4.07;64.45;101473.58;1662775;85;21039;-70
2022/12/26 09:44:03;;;;;;;10.75;7.85;;;;;;;4.22;64.33;101473.00;1699970;83;21040;-70
2022/12/26 09:46:35;;;;;;;11.48;8.73;;;;;;;4.32;63.84;101469.51;1699408;83;21340;-70
2022/12/26 09:49:17;;;;;;;11.28;8.40;;;;;;;4.33;63.67;101463.70;1677020;84;21029;-70
2022/12/26 09:51:51;;;;;;;11.90;8.68;;;;;;;4.38;63.53;101462.64;1673549;84;21531;-70
2022/12/26 09:54:37;;;;;;;10.15;7.35;;;;;;;4.38;63.26;101464.77;1690531;84;20986;-70
2022/12/26 09:57:19;;;;;;;11.63;8.23;;;;;;;4.29;63.38;101459.31;1683868;84;21045;-70
2022/12/26 09:59:51;;;;;;;11.20;8.10;;;;;;;4.30;63.37;101456.97;1681573;83;21086;-68
2022/12/26 10:02:20;;;;;;;12.88;8.20;;;;;;;4.29;63.23;101454.02;1697598;83;21650;-70
2022/12/26 10:04:46;;;;;;;10.68;7.47;;;;;;;4.31;63.23;101463.92;1680640;84;21594;-70
2022/12/26 10:07:37;;;;;;;10.32;7.67;;;;;;;4.36;63.20;101462.81;1689132;84;21115;-68
2022/12/26 10:10:34;;;;;;;11.60;7.47;;;;;;;4.44;63.04;101461.84;1667659;84;21135;-69
2022/12/26 10:13:18;;;;;;;11.97;8.38;;;;;;;4.53;62.82;101461.19;1680886;84;21580;-70
2022/12/26 10:32:50;;;;;;;9.63;7.40;;;;;;;4.92;61.65;101464.03;1833386;77;22426;-70
2022/12/26 10:35:42;;;;;;;9.65;7.45;;;;;;;4.74;61.39;101465.56;1797836;79;21015;-70
2022/12/26 10:38:34;;;;;;;8.85;6.67;;;;;;;4.59;61.22;101461.73;1783507;79;21224;-70
2022/12/26 10:41:07;;;;;;;9.48;7.10;;;;;;;4.48;61.42;101443.77;1768291;79;21051;-70
2022/12/26 10:43:34;;;;;;;9.65;7.47;;;;;;;4.46;61.53;101435.51;1774825;79;21476;-70
2022/12/26 10:46:38;;;;;;;9.68;7.37;;;;;;;4.53;61.74;101436.86;1795513;79;21074;-70
2022/12/26 10:49:10;;;;;;;12.10;8.05;;;;;;;4.63;61.75;101429.39;1795958;79;21553;-69
2022/12/26 10:51:37;;;;;;;10.03;7.58;;;;;;;4.72;61.60;101423.44;1766405;81;21216;-69
2022/12/26 10:54:19;;;;;;;10.38;7.33;;;;;;;4.77;61.37;101419.70;1766832;79;21146;-70
2022/12/26 10:56:45;;;;;;;10.70;7.55;;;;;;;4.80;61.29;101421.11;1781946;79;20943;-70
2022/12/26 10:59:31;;;;;;;10.03;7.05;;;;;;;4.87;61.25;101425.45;1798813;79;21123;-70
2022/12/26 11:01:58;;;;;;;9.58;7.08;;;;;;;4.92;61.04;101424.33;1797352;79;21030;-70
2022/12/26 11:04:25;;;;;;;9.88;7.15;;;;;;;4.94;60.64;101423.63;1779485;79;21179;-70
2022/12/26 11:06:53;;;;;;;10.55;7.30;;;;;;;4.93;60.57;101427.78;1797199;79;21482;-70
2022/12/26 11:09:42;;;;;;;9.80;7.37;;;;;;;4.91;60.38;101427.19;1797398;79;21518;-70
2022/12/26 11:12:26;;;;;;;10.63;7.55;;;;;;;4.88;60.35;101424.42;1783321;79;21070;-70
2022/12/26 11:14:59;;;;;;;9.78;7.25;;;;;;;4.90;60.38;101421.56;1794690;79;21011;-69
2022/12/26 11:17:29;;;;;;;11.12;7.67;;;;;;;4.90;60.33;101419.75;1780221;79;21665;-69
2022/12/26 11:20:25;;;;;;;10.85;7.87;;;;;;;4.87;60.20;101416.66;1766004;80;21225;-69
2022/12/26 11:22:52;;;;;;;9.97;7.40;;;;;;;4.87;60.34;101416.18;1627713;80;10000076;-69
2022/12/26 11:25:26;;;;;;;11.45;8.18;;;;;;;4.84;60.14;101412.60;1783348;78;21508;-69
2022/12/26 11:27:55;;;;;;;9.68;7.80;;;;;;;4.82;60.22;101420.42;1781610;79;21900;-69
2022/12/26 11:30:31;;;;;;;12.82;9.05;;;;;;;4.83;60.10;101416.75;1771787;79;21045;-69
2022/12/26 11:33:12;;;;;;;11.48;8.90;;;;;;;4.79;60.20;101412.87;1786659;79;20939;-69
2022/12/26 11:35:50;;;;;;;11.60;8.90;;;;;;;4.80;60.44;101403.40;1782580;79;21050;-69
2022/12/26 11:38:34;;;;;;;11.25;8.25;;;;;;;4.84;60.40;101392.75;1768371;79;20915;-69
2022/12/26 11:41:54;;;;;;;11.20;8.13;;;;;;;4.87;60.44;101385.73;1779774;79;21663;-69
2022/12/26 11:43:37;;;;;;;9.88;7.70;;;;;;;4.90;60.48;101389.31;1757886;79;20959;-69
2022/12/26 11:46:04;;;;;;;10.98;7.97;;;;;;;4.95;60.46;101390.03;1770618;79;21235;-69
2022/12/26 11:48:32;;;;;;;10.82;7.45;;;;;;;4.97;60.34;101383.20;1771581;79;20999;-69
2022/12/26 11:50:58;;;;;;;10.53;7.35;;;;;;;4.96;60.25;101386.87;1765123;79;20995;-69
2022/12/26 11:53:25;;;;;;;10.72;7.62;;;;;;;4.88;60.16;101388.69;1799430;79;21514;-69
2022/12/26 11:56:02;;;;;;;10.55;7.50;;;;;;;4.68;60.49;101401.03;1800836;79;21042;-69
2022/12/26 11:58:30;;;;;;;9.73;7.83;;;;;;;4.72;60.85;101400.94;1770731;79;21121;-69
2022/12/26 12:01:04;;;;;;;9.65;7.05;;;;;;;4.84;60.68;101395.91;1800166;79;21045;-69
2022/12/26 12:03:46;;;;;;;9.38;7.22;;;;;;;4.86;60.63;101389.37;1800657;78;21022;-70
2022/12/26 12:06:19;;;;;;;11.00;7.95;;;;;;;4.88;60.55;101385.23;1800250;79;21106;-70
2022/12/26 12:09:03;;;;;;;10.13;7.50;;;;;;;4.88;60.47;101391.84;1801292;79;20931;-70
2022/12/26 12:12:09;;;;;;;11.00;8.28;;;;;;;4.88;60.48;101386.03;1799901;79;21060;-70
2022/12/26 12:14:52;;;;;;;12.30;8.60;;;;;;;4.88;60.42;101384.72;1801241;78;20995;-69
2022/12/26 12:17:57;;;;;;;10.88;8.08;;;;;;;4.73;60.32;101392.48;1793497;79;20939;-69
2022/12/26 12:21:01;;;;;;;10.90;8.43;;;;;;;4.57;60.46;101388.34;1770583;79;21184;-69
2022/12/26 12:23:39;;;;;;;12.55;9.15;;;;;;;4.53;60.76;101397.19;1779494;79;21022;-70
2022/12/26 12:26:37;;;;;;;15.05;9.13;;;;;;;4.53;60.89;101400.34;1793826;79;20988;-69
2022/12/26 12:29:35;;;;;;;12.88;9.48;;;;;;;4.56;61.00;101402.09;1785357;78;21035;-70
2022/12/26 12:32:09;;;;;;;10.88;7.30;;;;;;;4.50;60.84;101395.44;1770736;79;21082;-71
2022/12/26 12:34:53;;;;;;;11.90;7.65;;;;;;;4.36;61.06;101401.98;1769062;80;21051;-69
2022/12/26 12:38:04;;;;;;;12.63;8.58;;;;;;;4.21;61.18;101399.95;1768255;80;21046;-69
2022/12/26 12:40:37;;;;;;;12.75;9.33;;;;;;;4.04;61.45;101401.27;1769098;80;21034;-69
2022/12/26 12:43:26;;;;;;;;;;;;;;;3.94;61.84;101398.45;1772240;80;21154;-69
2022/12/26 12:46:42;;;;;;;13.75;9.85;;;;;;;3.97;62.03;101398.58;1769000;80;20176;-69
2022/12/26 12:49:36;;;;;;;12.93;9.35;;;;;;;3.89;62.18;101388.16;1769171;80;21279;-70
2022/12/26 12:52:35;;;;;;;11.93;8.43;;;;;;;3.82;62.51;101386.80;1769062;80;20961;-70
2022/12/26 12:55:40;;;;;;;11.30;7.95;;;;;;;3.73;62.74;101388.75;1769206;80;21031;-70
2022/12/26 12:58:22;;;;;;;13.55;9.08;;;;;;;3.70;63.00;101390.45;1769549;80;21039;-70
2022/12/26 13:01:02;;;;;;;12.28;8.03;;;;;;;3.61;63.22;101390.77;1770199;80;21031;-69
2022/12/26 13:03:50;;;;;;;12.23;8.60;;;;;;;3.56;63.50;101383.94;1768136;80;21055;-69
2022/12/26 13:06:36;;;;;;;13.13;8.50;;;;;;;3.49;63.74;101378.09;1769183;80;20991;-69
2022/12/26 13:09:23;;;;;;;13.40;8.50;;;;;;;3.39;63.99;101374.95;1769386;80;21364;-69
2022/12/26 13:12:03;;;;;;;12.35;8.70;;;;;;;3.35;64.21;101376.83;1769169;78;21054;-70
2022/12/26 13:14:50;;;;;;;11.83;7.62;;;;;;;3.31;64.41;101376.38;1760137;80;20992;-70
2022/12/26 13:17:32;;;;;;;12.20;9.05;;;;;;;3.29;64.57;101370.47;1785558;79;21222;-69
2022/12/26 13:20:10;;;;;;;13.03;8.73;;;;;;;3.28;64.72;101366.20;1768085;80;25197;-70
2022/12/26 13:25:33;;;;;;;12.57;9.20;;;;;;;3.25;65.03;101358.66;1768575;80;21078;-70
2022/12/26 13:28:08;;;;;;;13.83;9.23;;;;;;;3.21;65.17;101352.13;1768848;80;21098;-70
2022/12/26 13:30:31;;;;;;;14.40;10.35;;;;;;;3.15;65.30;101355.52;1768466;80;21170;-71
2022/12/26 13:32:58;;;;;;;15.63;11.22;;;;;;;3.09;65.50;101341.74;1774247;78;21533;-70
2022/12/26 13:36:02;;;;;;;16.32;10.80;;;;;;;2.99;65.71;101348.14;1800405;79;21067;-71
2022/12/26 13:39:00;;;;;;;17.05;11.28;;;;;;;2.97;65.86;101347.53;1799007;79;21046;-71
2022/12/26 13:44:23;;;;;;;18.62;11.78;;;;;;;2.84;66.15;101342.63;1800021;79;21743;-71
2022/12/26 13:46:56;;;;;;;15.95;10.85;;;;;;;2.77;66.33;101335.95;1770073;79;21090;-70
2022/12/26 13:49:38;;;;;;;14.95;10.78;;;;;;;2.70;66.44;101331.92;1769729;80;21018;-70
2022/12/26 13:52:18;;;;;;;18.27;11.47;;;;;;;2.64;66.58;101333.17;1769256;80;21070;-70
2022/12/26 13:54:55;;;;;;;16.90;10.65;;;;;;;2.57;66.75;101333.09;1768999;80;21045;-70
2022/12/26 13:57:30;;;;;;;13.98;10.10;;;;;;;2.55;66.90;101326.66;1769214;80;21584;-69
2022/12/26 14:00:07;;;;;;;15.00;10.65;;;;;;;2.49;67.01;101326.08;1769509;80;20940;-70
2022/12/26 14:03:10;;;;;;;14.28;9.03;;;;;;;2.48;67.13;101325.77;1778523;78;21062;-72
2022/12/26 14:05:48;;;;;;;12.63;8.98;;;;;;;2.46;67.26;101329.59;1778979;78;20991;-71
2022/12/26 14:08:58;;;;;;;13.25;9.15;;;;;;;2.43;67.40;101330.77;1785585;78;21058;-71
2022/12/26 14:11:48;;;;;;;11.60;8.85;;;;;;;2.40;67.57;101328.50;1783610;78;21948;-70
2022/12/26 14:14:49;;;;;;;12.35;9.30;;;;;;;2.36;67.70;101324.59;1777322;78;21050;-70
2022/12/26 14:17:55;;;;;;;11.85;8.13;;;;;;;2.34;67.85;101326.62;1779898;79;21189;-71
2022/12/26 14:20:42;;;;;;;12.98;8.75;;;;;;;2.33;67.94;101311.28;1776211;79;21510;-70
2022/12/26 14:23:45;;;;;;;11.83;8.58;;;;;;;2.31;68.07;101315.13;1782025;78;21128;-71
2022/12/26 14:26:32;;;;;;;13.38;8.88;;;;;;;2.13;68.35;101319.44;1770701;79;21272;-71